Waco's Hourly Summary for Thursday, April 20, 2017
Hour Temp
(f)
RH
(%)
Solar Rad.
(MJ/m2)
Rainfall
(in)
Wind
(mph)
4/20/2017 12:00 AM 71 81 0 0 5.46
4/20/2017 1:00 AM 69 83 0 0 4.54
4/20/2017 2:00 AM 68 87 0 0 4.46
4/20/2017 3:00 AM 68 88 0 0 4.55
4/20/2017 4:00 AM 68 85 0 0 6.1
4/20/2017 5:00 AM 69 85 0 0 4.96
4/20/2017 6:00 AM 68 86 0 0 3.85
4/20/2017 7:00 AM 67 89 0 0 2
4/20/2017 8:00 AM 68 89 0.09 0 1.27
4/20/2017 9:00 AM 70 84 0.39 0 3.33
4/20/2017 10:00 AM 72 74 1.07 0 5.48
4/20/2017 11:00 AM 76 64 1.83 0 7.03
4/20/2017 12:00 PM 77 61 2.13 0 7.39
4/20/2017 1:00 PM 79 59 2.27 0 7.36
4/20/2017 2:00 PM 81 57 2.68 0 7.36
4/20/2017 3:00 PM 82 54 2.38 0 6.95
4/20/2017 4:00 PM 83 52 1.86 0 4.87
4/20/2017 5:00 PM 83 51 1.64 0 4.54
4/20/2017 6:00 PM 81 57 0.92 0 3.89
4/20/2017 7:00 PM 82 55 0.78 0 4.11
4/20/2017 8:00 PM 79 56 0.21 0 3.35
4/20/2017 9:00 PM 76 65 0 0 1.37
4/20/2017 10:00 PM 73 71 0 0 1.16
4/20/2017 11:00 PM 72 75 0 0 1.2
Data Summary 74 71 18.25 0.00 4.44